Time;durP1;ratioP1;P1;durP2;ratioP2;P2;SDS_P1;SDS_P2;PMS_P1;PMS_P2;Temp;Humidity;BMP_temperature;BMP_pressure;BME280_temperature;BME280_humidity;BME280_pressure;Samples;Min_cycle;Max_cycle;Signal;HPM_P1;HPM_P2
2022/03/27 00:01:59;;;;;;;22.58;16.42;;;;;;;11.23;62.30;101213.50;4889762;29;20050;-90
2022/03/27 00:04:24;;;;;;;22.05;16.60;;;;;;;11.23;62.38;101213.50;4888749;29;20179;-91
2022/03/27 00:06:50;;;;;;;25.30;16.67;;;;;;;11.23;62.72;101210.84;4889764;29;20067;-91
2022/03/27 00:09:15;;;;;;;22.63;17.17;;;;;;;11.23;62.79;101213.50;4889436;29;20028;-91
2022/03/27 00:11:40;;;;;;;24.02;18.35;;;;;;;11.23;62.77;101213.50;4890043;29;20082;-91
2022/03/27 00:14:06;;;;;;;26.70;16.88;;;;;;;11.20;62.98;101216.41;4890569;29;20031;-91
2022/03/27 00:16:32;;;;;;;22.70;16.48;;;;;;;11.16;63.31;101217.59;4888717;29;20132;-90
2022/03/27 00:18:58;;;;;;;27.08;18.38;;;;;;;11.12;62.96;101209.91;4904957;29;20039;-90
2022/03/27 00:21:24;;;;;;;25.83;17.58;;;;;;;11.10;63.16;101220.72;4888417;29;20044;-89
2022/03/27 00:23:51;;;;;;;24.20;17.55;;;;;;;11.11;62.73;101213.53;4888708;29;20058;-91
2022/03/27 00:26:16;;;;;;;24.13;17.48;;;;;;;11.09;62.83;101215.47;4888273;29;20115;-90
2022/03/27 00:28:42;;;;;;;28.08;18.38;;;;;;;11.08;63.11;101214.63;4888847;29;20538;-91
2022/03/27 00:31:10;;;;;;;24.83;17.70;;;;;;;11.06;62.99;101213.03;4881588;29;20485;-90
2022/03/27 00:33:36;;;;;;;24.52;18.17;;;;;;;11.08;63.20;101203.91;4904239;29;20118;-91
2022/03/27 00:36:06;;;;;;;25.67;18.50;;;;;;;11.06;63.18;101205.00;4888896;29;20040;-90
2022/03/27 00:38:34;;;;;;;26.92;19.75;;;;;;;11.03;63.36;101206.91;4914460;29;20042;-90
2022/03/27 00:41:01;;;;;;;27.85;18.98;;;;;;;11.00;63.41;101200.94;4898007;29;20043;-90
2022/03/27 00:43:27;;;;;;;26.98;19.52;;;;;;;11.02;63.49;101204.34;4897737;29;20043;-90
2022/03/27 00:45:53;;;;;;;25.60;19.58;;;;;;;10.92;63.52;101208.66;4898463;29;20027;-91
2022/03/27 00:48:19;;;;;;;24.73;18.48;;;;;;;10.93;63.37;101200.53;4901024;29;20067;-90
2022/03/27 00:50:46;;;;;;;26.88;18.52;;;;;;;10.94;63.38;101204.91;4902596;29;20039;-91
2022/03/27 00:53:11;;;;;;;27.23;19.13;;;;;;;10.94;63.56;101204.06;4897957;29;20035;-90
2022/03/27 00:55:37;;;;;;;26.65;19.30;;;;;;;10.92;62.78;101201.47;4898282;29;20111;-90
2022/03/27 00:58:03;;;;;;;25.65;18.33;;;;;;;10.92;63.44;101196.13;4897325;29;20508;-91
2022/03/27 01:00:56;;;;;;;26.08;19.52;;;;;;;10.93;63.46;101195.16;4897214;29;20032;-90
2022/03/27 01:03:24;;;;;;;25.35;18.75;;;;;;;10.93;63.41;101186.28;4897106;29;20589;-90
2022/03/27 01:05:50;;;;;;;24.95;19.73;;;;;;;10.93;63.44;101195.16;4897365;29;20035;-90
2022/03/27 01:09:35;;;;;;;24.48;18.52;;;;;;;10.92;63.50;101197.94;4897206;29;20514;-89
2022/03/27 01:11:10;;;;;;;25.80;18.20;;;;;;;10.95;63.61;101187.03;4916166;29;20036;-91
2022/03/27 01:13:36;;;;;;;24.17;17.80;;;;;;;11.01;63.45;101189.25;4912888;29;20549;-90
2022/03/27 01:16:02;;;;;;;22.63;16.85;;;;;;;10.97;62.82;101191.31;4897857;29;20032;-90
2022/03/27 01:18:44;;;;;;;25.80;18.63;;;;;;;10.86;63.93;101190.34;4896911;29;20036;-90
2022/03/27 01:21:11;;;;;;;25.65;18.27;;;;;;;10.64;64.14;101182.97;4896636;29;20031;-90
2022/03/27 01:23:36;;;;;;;23.38;18.10;;;;;;;10.75;64.20;101192.91;4896764;29;20043;-90
2022/03/27 01:26:01;;;;;;;26.33;18.65;;;;;;;10.68;64.45;101187.16;4897213;29;20054;-90
2022/03/27 01:28:41;;;;;;;23.65;17.88;;;;;;;10.75;64.19;101185.75;4896685;29;20059;-91
2022/03/27 01:31:07;;;;;;;24.70;18.10;;;;;;;10.70;63.98;101188.75;4896761;29;20576;-88
2022/03/27 01:33:32;;;;;;;25.85;18.65;;;;;;;10.69;63.34;101184.38;4896936;29;20043;-90
2022/03/27 01:35:58;;;;;;;22.85;17.15;;;;;;;10.67;63.78;101182.75;4896642;29;20031;-90
2022/03/27 01:38:23;;;;;;;23.73;17.15;;;;;;;10.68;64.19;101177.31;4912576;29;20413;-91
2022/03/27 01:40:49;;;;;;;22.85;17.23;;;;;;;10.68;63.86;101173.78;4897057;29;20059;-90
2022/03/27 01:43:14;;;;;;;23.92;17.05;;;;;;;10.65;64.00;101169.50;4896139;29;20038;-90
2022/03/27 01:45:41;;;;;;;22.20;16.92;;;;;;;10.63;63.93;101171.41;4896861;29;20090;-90
2022/03/27 01:48:06;;;;;;;25.75;17.73;;;;;;;10.65;63.80;101164.16;4895745;29;20035;-90
2022/03/27 01:50:32;;;;;;;26.27;18.92;;;;;;;10.64;64.00;101169.59;4896425;29;20452;-90
2022/03/27 01:52:57;;;;;;;22.80;18.35;;;;;;;10.61;64.66;101170.69;4896201;29;20139;-91
2022/03/27 01:55:22;;;;;;;23.98;17.77;;;;;;;10.64;64.48;101164.25;4895866;29;20059;-90
2022/03/27 01:57:48;;;;;;;24.95;18.40;;;;;;;10.68;64.08;101166.59;4897051;29;20409;-89
2022/03/27 02:00:14;;;;;;;24.10;18.02;;;;;;;10.69;64.15;101170.13;4895014;29;20059;-90
2022/03/27 02:02:40;;;;;;;26.75;18.55;;;;;;;10.65;63.92;101171.31;4895975;29;20031;-89
2022/03/27 02:05:05;;;;;;;22.45;16.90;;;;;;;10.62;64.33;101171.53;4895480;29;20977;-90
2022/03/27 02:07:38;;;;;;;23.75;17.42;;;;;;;10.58;64.46;101172.72;4896366;29;20039;-90
2022/03/27 02:10:05;;;;;;;22.77;18.00;;;;;;;10.58;64.18;101167.38;4895300;29;20036;-90
2022/03/27 02:12:34;;;;;;;23.67;17.92;;;;;;;10.54;64.15;101171.22;4912345;29;20039;-88
2022/03/27 02:14:59;;;;;;;23.17;16.38;;;;;;;10.53;64.27;101165.00;4896089;29;20115;-90
2022/03/27 02:17:25;;;;;;;22.35;16.80;;;;;;;10.51;64.51;101160.75;4895622;29;20702;-90
2022/03/27 02:19:50;;;;;;;22.20;16.52;;;;;;;10.51;64.49;101163.41;4896282;29;20072;-91
2022/03/27 02:22:15;;;;;;;22.67;17.02;;;;;;;10.50;64.33;101164.38;4895798;29;20111;-90
2022/03/27 02:24:41;;;;;;;22.27;16.75;;;;;;;10.46;64.33;101163.75;4895567;29;20047;-89
2022/03/27 02:27:06;;;;;;;22.88;17.30;;;;;;;10.48;64.54;101163.63;4894767;29;20118;-90
2022/03/27 02:29:32;;;;;;;21.95;16.45;;;;;;;10.52;64.86;101154.44;4895492;29;20047;-90
2022/03/27 02:31:57;;;;;;;23.00;16.98;;;;;;;10.49;64.49;101160.84;4895481;29;20095;-90
2022/03/27 02:34:23;;;;;;;22.75;16.98;;;;;;;10.44;64.23;101160.31;4895591;29;20031;-89
2022/03/27 02:36:48;;;;;;;19.73;15.80;;;;;;;10.48;64.68;101169.84;4895464;29;20063;-90
2022/03/27 02:39:14;;;;;;;22.75;16.25;;;;;;;10.47;64.77;101160.09;4895576;29;20031;-88
2022/03/27 02:41:40;;;;;;;22.02;15.93;;;;;;;10.54;65.04;101166.72;4895788;29;20374;-90
2022/03/27 02:44:06;;;;;;;22.88;16.90;;;;;;;10.52;64.80;101163.31;4895651;29;20110;-90
2022/03/27 02:46:32;;;;;;;21.52;16.08;;;;;;;10.42;65.33;101161.38;4896509;29;20038;-91
2022/03/27 02:48:57;;;;;;;21.85;15.43;;;;;;;10.34;65.09;101162.75;4896393;29;20409;-90
2022/03/27 02:51:22;;;;;;;20.70;15.40;;;;;;;10.32;64.94;101161.13;4907672;29;20024;-88
2022/03/27 02:53:48;;;;;;;22.83;16.45;;;;;;;10.19;65.47;101170.94;4911313;29;20485;-90
2022/03/27 02:56:13;;;;;;;22.42;16.30;;;;;;;10.19;65.72;101170.94;4896762;29;20062;-90
2022/03/27 02:58:39;;;;;;;20.73;15.15;;;;;;;10.38;65.40;101158.03;4895703;29;20449;-90
2022/03/27 03:01:04;;;;;;;21.75;15.93;;;;;;;10.57;65.20;101160.31;4896329;29;20046;-90
2022/03/27 03:03:29;;;;;;;21.77;16.08;;;;;;;10.61;64.86;101159.97;4895932;29;20031;-91
2022/03/27 03:05:55;;;;;;;21.60;15.93;;;;;;;10.59;64.62;101155.69;4897125;29;20035;-91
2022/03/27 03:08:21;;;;;;;24.40;16.55;;;;;;;10.47;65.07;101154.75;4911424;29;20436;-90
2022/03/27 03:10:46;;;;;;;25.13;15.90;;;;;;;10.42;64.95;101156.03;4896917;29;20515;-90
2022/03/27 03:13:12;;;;;;;26.52;17.50;;;;;;;10.34;64.79;101148.53;4894964;29;20032;-91
2022/03/27 03:15:39;;;;;;;22.13;15.40;;;;;;;10.32;64.45;101145.09;4895436;29;20027;-90
2022/03/27 03:18:05;;;;;;;22.10;15.23;;;;;;;10.29;65.19;101151.53;4900447;29;20027;-91
2022/03/27 03:20:31;;;;;;;23.20;15.80;;;;;;;10.27;65.15;101147.25;4901625;29;20039;-90
2022/03/27 03:22:57;;;;;;;22.15;15.43;;;;;;;10.18;65.35;101145.19;4900281;29;20027;-90
2022/03/27 03:25:23;;;;;;;20.00;15.65;;;;;;;10.20;65.41;101157.50;4899668;29;20449;-89
2022/03/27 03:27:49;;;;;;;21.40;15.27;;;;;;;10.16;65.57;101153.31;4899629;29;20575;-90
2022/03/27 03:30:16;;;;;;;20.35;15.32;;;;;;;10.10;65.47;101151.91;4898774;29;20055;-89
2022/03/27 03:32:42;;;;;;;21.90;16.17;;;;;;;10.12;65.60;101150.94;4900418;29;20212;-89
2022/03/27 03:35:08;;;;;;;23.63;15.52;;;;;;;10.11;65.99;101158.09;4899021;29;20034;-89
2022/03/27 03:37:34;;;;;;;18.88;15.02;;;;;;;10.12;65.42;101151.81;4915102;29;20055;-91
2022/03/27 03:39:59;;;;;;;20.48;15.00;;;;;;;10.07;65.55;101144.09;4899009;29;20032;-91
2022/03/27 03:42:25;;;;;;;20.75;15.65;;;;;;;10.09;65.45;101144.84;4900044;29;20039;-89
2022/03/27 03:44:51;;;;;;;19.83;15.20;;;;;;;10.04;65.41;101146.13;4899178;29;20713;-90
2022/03/27 03:47:16;;;;;;;21.90;15.27;;;;;;;10.05;65.88;101142.50;4899461;29;20039;-90
2022/03/27 03:49:41;;;;;;;19.52;14.85;;;;;;;10.06;65.28;101149.56;4898668;29;20035;-90
2022/03/27 03:52:07;;;;;;;21.38;15.27;;;;;;;10.05;65.27;101150.50;4899263;29;20638;-88
2022/03/27 03:54:34;;;;;;;20.48;14.55;;;;;;;10.06;65.37;101150.41;4898858;29;20561;-91
2022/03/27 03:57:02;;;;;;;19.98;14.80;;;;;;;10.08;65.01;101144.97;4899096;29;20042;-91
2022/03/27 03:59:28;;;;;;;21.92;15.38;;;;;;;10.04;65.18;101147.00;4913528;29;20027;-91
2022/03/27 04:01:53;;;;;;;21.70;15.18;;;;;;;10.03;65.33;101147.09;4900370;29;20066;-91
2022/03/27 04:04:19;;;;;;;20.15;15.23;;;;;;;9.95;65.38;101147.63;4898335;29;20068;-90
2022/03/27 04:06:44;;;;;;;22.65;14.65;;;;;;;9.96;65.50;101149.34;4898803;29;20520;-90
2022/03/27 04:09:10;;;;;;;21.13;14.77;;;;;;;10.07;65.86;101145.91;4898512;29;20055;-90
2022/03/27 04:11:35;;;;;;;18.90;14.60;;;;;;;10.08;65.27;101140.47;4898961;29;20032;-90
2022/03/27 04:14:01;;;;;;;20.95;14.80;;;;;;;10.10;65.68;101143.03;4898427;29;20038;-90
2022/03/27 04:16:26;;;;;;;19.48;14.45;;;;;;;10.10;65.64;101143.03;4898434;29;20039;-90
2022/03/27 04:18:51;;;;;;;20.58;13.73;;;;;;;10.08;65.64;101148.50;4898370;29;20046;-91
2022/03/27 04:21:17;;;;;;;19.38;13.77;;;;;;;9.99;66.01;101140.25;4898596;29;20157;-90
2022/03/27 04:23:43;;;;;;;19.02;14.05;;;;;;;9.90;66.45;101144.38;4898203;29;20027;-90
2022/03/27 04:26:08;;;;;;;19.30;14.95;;;;;;;9.73;66.79;101147.34;4898287;29;20040;-89
2022/03/27 04:28:34;;;;;;;19.55;14.40;;;;;;;9.77;66.66;101147.03;4897539;29;20035;-91
2022/03/27 04:30:59;;;;;;;21.48;14.65;;;;;;;9.76;66.82;101141.78;4898555;29;20045;-90
2022/03/27 04:33:24;;;;;;;19.52;14.80;;;;;;;9.85;66.47;101148.31;4897894;29;20378;-91
2022/03/27 04:35:50;;;;;;;21.70;13.73;;;;;;;9.87;66.40;101149.06;4897900;29;20027;-91
2022/03/27 04:38:16;;;;;;;21.48;15.23;;;;;;;9.85;65.80;101151.00;4898066;29;20047;-91
2022/03/27 04:40:42;;;;;;;20.23;15.18;;;;;;;9.77;66.44;101139.00;4898734;29;20501;-91
2022/03/27 04:43:07;;;;;;;19.98;14.23;;;;;;;9.82;66.27;101143.19;4898079;29;20063;-89
2022/03/27 04:45:33;;;;;;;20.17;15.05;;;;;;;9.75;66.49;101145.41;4897712;29;20111;-91
2022/03/27 04:47:58;;;;;;;19.27;14.88;;;;;;;9.74;66.71;101149.06;4897758;29;20032;-91
2022/03/27 04:50:23;;;;;;;21.00;14.48;;;;;;;9.74;66.56;101143.72;4897126;29;20122;-90
2022/03/27 04:52:49;;;;;;;20.52;14.52;;;;;;;9.73;66.70;101153.53;4898991;29;20050;-90
2022/03/27 04:55:14;;;;;;;21.52;14.68;;;;;;;9.74;66.52;101149.06;4897632;29;20035;-91
2022/03/27 04:57:41;;;;;;;19.75;14.85;;;;;;;9.72;66.96;101158.97;4898049;29;20035;-90
2022/03/27 05:00:12;;;;;;;19.05;14.25;;;;;;;9.66;66.73;101148.72;4897278;29;20046;-91
2022/03/27 05:02:38;;;;;;;19.25;13.43;;;;;;;9.67;66.48;101148.59;4914115;29;20035;-92
2022/03/27 05:05:05;;;;;;;20.10;15.00;;;;;;;9.62;66.76;101153.41;4897254;29;20146;-91
2022/03/27 05:07:30;;;;;;;20.90;14.68;;;;;;;9.65;66.50;101158.53;4898566;29;20059;-89
2022/03/27 05:09:56;;;;;;;19.33;14.10;;;;;;;9.60;66.21;101157.13;4897356;29;20075;-91
2022/03/27 05:12:21;;;;;;;20.17;13.75;;;;;;;9.56;66.85;101158.31;4897778;29;20044;-90
2022/03/27 05:14:46;;;;;;;19.63;13.82;;;;;;;9.60;66.39;101158.00;4897067;29;20051;-89
2022/03/27 05:17:12;;;;;;;21.38;14.45;;;;;;;9.57;66.45;101163.53;4898141;29;20416;-91
2022/03/27 05:19:37;;;;;;;18.15;13.85;;;;;;;9.56;66.30;101164.50;4897205;29;20035;-88
2022/03/27 05:22:03;;;;;;;20.33;15.38;;;;;;;9.56;66.29;101158.31;4897914;29;20408;-90
2022/03/27 05:24:28;;;;;;;19.73;14.27;;;;;;;9.52;65.95;101159.47;4912451;29;20067;-90
2022/03/27 05:26:54;;;;;;;19.05;14.43;;;;;;;9.56;66.00;101166.31;4912842;29;20042;-89
2022/03/27 05:29:21;;;;;;;20.13;14.90;;;;;;;9.55;66.46;101167.28;4896920;29;20027;-91
2022/03/27 05:31:46;;;;;;;21.23;15.02;;;;;;;9.53;65.84;101161.19;4897402;29;20042;-90
2022/03/27 05:34:11;;;;;;;24.60;15.95;;;;;;;9.60;66.16;101167.81;4897197;29;20396;-90
2022/03/27 05:36:37;;;;;;;20.02;14.88;;;;;;;9.61;66.14;101181.06;4895350;29;20528;-90
2022/03/27 05:39:03;;;;;;;19.77;14.77;;;;;;;9.59;66.24;101174.97;4886903;29;20040;-90
2022/03/27 05:41:28;;;;;;;22.10;14.57;;;;;;;9.53;66.50;101179.88;4886213;29;20047;-91
2022/03/27 05:43:53;;;;;;;19.60;14.57;;;;;;;9.52;66.87;101184.34;4888949;29;20032;-89
2022/03/27 05:46:20;;;;;;;19.83;14.57;;;;;;;9.57;66.28;101184.03;4889845;29;20114;-90
2022/03/27 05:48:46;;;;;;;20.52;14.52;;;;;;;9.53;66.13;101183.38;4890858;29;20044;-90
2022/03/27 05:51:12;;;;;;;18.05;14.68;;;;;;;9.49;66.61;101184.56;4887852;29;20151;-91
2022/03/27 05:53:37;;;;;;;19.85;14.05;;;;;;;9.50;66.32;101196.09;4887891;29;20119;-88
2022/03/27 05:56:03;;;;;;;20.38;14.20;;;;;;;9.48;66.67;101200.69;4887629;29;20513;-90
2022/03/27 05:58:29;;;;;;;19.65;14.35;;;;;;;9.48;66.99;101196.19;4888156;29;20035;-91
2022/03/27 06:00:54;;;;;;;19.70;14.02;;;;;;;9.56;66.64;101198.34;4887841;29;20441;-91
2022/03/27 06:03:19;;;;;;;20.63;14.57;;;;;;;9.51;66.43;101198.66;4888673;29;20102;-90
2022/03/27 06:05:45;;;;;;;19.25;14.38;;;;;;;9.58;66.79;101207.97;4886855;29;20024;-90
2022/03/27 06:08:10;;;;;;;19.30;14.18;;;;;;;9.68;66.59;101209.09;4888725;29;20040;-89
2022/03/27 06:10:38;;;;;;;20.52;14.38;;;;;;;9.70;66.79;101212.50;4887075;29;20118;-91
2022/03/27 06:13:03;;;;;;;21.38;15.07;;;;;;;9.71;67.39;101214.22;4889208;29;20127;-90
2022/03/27 06:15:30;;;;;;;20.95;15.52;;;;;;;9.70;67.23;101214.31;4886303;29;20114;-90
2022/03/27 06:17:56;;;;;;;20.45;15.13;;;;;;;9.72;67.45;101217.75;4887996;29;20449;-90
2022/03/27 06:20:24;;;;;;;22.05;14.35;;;;;;;9.73;68.15;101212.31;4888423;29;20200;-88
2022/03/27 06:22:50;;;;;;;18.55;14.50;;;;;;;9.78;67.62;101212.84;4901913;29;20047;-90
2022/03/27 06:25:21;;;;;;;18.98;14.05;;;;;;;9.78;68.20;101212.00;4879677;29;20068;-90
2022/03/27 06:27:48;;;;;;;19.77;14.50;;;;;;;9.82;68.46;101215.31;4887018;29;20039;-91
2022/03/27 06:30:16;;;;;;;21.58;14.48;;;;;;;9.81;68.74;101216.28;4886880;29;20028;-91
2022/03/27 06:32:42;;;;;;;19.33;14.75;;;;;;;9.82;69.01;101210.84;4902439;29;20036;-89
2022/03/27 06:35:08;;;;;;;20.77;15.07;;;;;;;9.89;69.35;101221.97;4887763;29;20023;-90
2022/03/27 06:37:34;;;;;;;19.77;14.98;;;;;;;9.97;69.51;101222.34;4887077;29;20108;-90
2022/03/27 06:40:00;;;;;;;20.08;14.35;;;;;;;9.99;69.95;101212.41;4887917;29;20032;-89
2022/03/27 06:42:26;;;;;;;25.05;16.13;;;;;;;9.92;71.49;101219.94;4886862;29;20036;-90
2022/03/27 06:44:54;;;;;;;26.15;18.02;;;;;;;9.95;73.17;101218.91;4902416;29;20065;-91
2022/03/27 06:47:20;;;;;;;29.80;18.27;;;;;;;10.05;73.60;101222.69;4887293;29;20489;-91
2022/03/27 06:49:46;;;;;;;31.77;18.80;;;;;;;10.06;75.31;101214.56;4886552;29;20036;-90
2022/03/27 06:52:11;;;;;;;26.33;17.70;;;;;;;10.04;76.71;101215.63;4887377;29;20484;-91
2022/03/27 06:54:37;;;;;;;29.45;18.80;;;;;;;10.07;76.12;101213.59;4886975;29;20028;-90
2022/03/27 06:57:03;;;;;;;31.65;19.63;;;;;;;10.11;76.39;101211.56;4885970;29;20119;-90
2022/03/27 07:03:01;;;;;;;30.67;19.10;;;;;;;10.14;77.59;101218.53;4887383;29;20592;-91
2022/03/27 07:04:57;;;;;;;34.17;19.50;;;;;;;10.12;78.41;101215.09;4902798;29;20453;-91
2022/03/27 07:07:23;;;;;;;31.85;19.33;;;;;;;10.13;78.71;101216.81;4884517;29;20031;-90
2022/03/27 07:09:48;;;;;;;28.80;18.80;;;;;;;10.14;79.28;101221.19;4887153;29;20044;-91
2022/03/27 07:12:14;;;;;;;30.23;18.88;;;;;;;10.22;79.18;101229.56;4886825;29;20827;-90
2022/03/27 07:14:39;;;;;;;30.35;19.42;;;;;;;10.14;79.60;101222.06;4885819;29;20063;-90
2022/03/27 07:17:04;;;;;;;27.42;17.73;;;;;;;10.18;80.02;101218.19;4888175;29;20058;-90
2022/03/27 07:19:30;;;;;;;29.77;18.85;;;;;;;10.18;79.84;101214.69;4886954;29;20043;-90
2022/03/27 07:21:56;;;;;;;25.38;18.52;;;;;;;10.21;80.08;101215.34;4885245;29;20040;-90
2022/03/27 07:24:21;;;;;;;30.92;19.73;;;;;;;10.10;81.15;101220.53;4886051;29;20040;-91
2022/03/27 07:26:46;;;;;;;28.92;20.52;;;;;;;10.09;81.13;101214.34;4886887;29;20046;-90
2022/03/27 07:29:12;;;;;;;29.67;19.65;;;;;;;10.14;81.05;101211.34;4885815;29;20043;-91
2022/03/27 07:31:38;;;;;;;29.25;17.88;;;;;;;10.14;81.23;101224.72;4886294;29;20028;-90
2022/03/27 07:34:04;;;;;;;27.58;17.95;;;;;;;10.24;81.72;101215.16;4887391;29;20072;-91
2022/03/27 07:36:31;;;;;;;29.15;19.90;;;;;;;10.22;81.15;101217.06;4885206;29;20028;-90
2022/03/27 07:38:56;;;;;;;28.60;19.42;;;;;;;10.19;81.84;101222.59;4885782;29;20031;-88
2022/03/27 07:41:22;;;;;;;27.95;18.73;;;;;;;10.18;82.15;101220.03;4885778;29;20040;-90
2022/03/27 07:43:47;;;;;;;29.52;19.13;;;;;;;10.26;82.13;101231.94;4886441;29;20044;-89
2022/03/27 07:46:12;;;;;;;27.73;18.65;;;;;;;10.14;82.41;101227.41;4885767;29;20043;-90
2022/03/27 07:48:38;;;;;;;27.40;19.17;;;;;;;10.20;82.44;101237.69;4886557;29;20066;-89
2022/03/27 07:51:06;;;;;;;27.60;19.45;;;;;;;10.27;82.63;101227.44;4886812;29;20095;-90
2022/03/27 07:53:32;;;;;;;28.08;20.00;;;;;;;10.28;82.35;101230.00;4888315;29;20486;-89
2022/03/27 07:55:57;;;;;;;30.45;20.08;;;;;;;10.35;82.46;101230.44;4886678;29;20040;-90
2022/03/27 07:58:22;;;;;;;27.17;18.27;;;;;;;10.33;82.60;101227.03;4887269;29;20043;-90
2022/03/27 08:00:48;;;;;;;29.58;19.20;;;;;;;10.34;82.43;101232.25;4886541;29;20042;-91
2022/03/27 08:03:13;;;;;;;27.65;19.05;;;;;;;10.32;82.72;101230.66;4884906;29;20033;-90
2022/03/27 08:05:38;;;;;;;27.40;18.80;;;;;;;10.37;82.54;101226.72;4888858;29;20047;-89
2022/03/27 08:08:04;;;;;;;24.88;18.02;;;;;;;10.39;82.71;101231.94;4889572;29;20110;-90
2022/03/27 08:10:30;;;;;;;25.65;17.90;;;;;;;10.27;82.79;101225.63;4889913;29;20126;-90
2022/03/27 08:12:56;;;;;;;26.38;18.50;;;;;;;10.26;83.21;101225.72;4887537;29;20040;-89
2022/03/27 08:15:21;;;;;;;26.08;18.65;;;;;;;10.35;83.39;101223.28;4887628;29;20119;-89
2022/03/27 08:17:47;;;;;;;29.90;18.60;;;;;;;10.33;83.37;101225.22;4889990;29;20119;-90
2022/03/27 08:20:12;;;;;;;27.27;18.73;;;;;;;10.42;83.04;101217.53;4891294;29;20047;-91
2022/03/27 08:22:38;;;;;;;29.02;19.85;;;;;;;10.49;83.13;101226.84;4890631;29;20035;-91
2022/03/27 08:25:04;;;;;;;26.13;18.48;;;;;;;10.58;83.01;101232.41;4890605;29;20518;-88
2022/03/27 08:27:33;;;;;;;28.42;19.30;;;;;;;10.49;82.84;101227.72;4889795;29;20509;-91
2022/03/27 08:29:58;;;;;;;26.88;18.20;;;;;;;10.51;82.73;101231.13;4890368;29;20063;-90
2022/03/27 08:32:23;;;;;;;27.42;18.88;;;;;;;10.33;83.25;101229.69;4887635;29;20075;-89
2022/03/27 08:34:49;;;;;;;29.05;19.70;;;;;;;10.33;83.58;101232.38;4890276;29;20063;-91
2022/03/27 08:37:16;;;;;;;28.83;19.23;;;;;;;10.40;83.80;101225.63;4893013;29;20736;-90
2022/03/27 08:39:46;;;;;;;26.13;18.35;;;;;;;10.34;83.71;101224.25;4900721;29;20055;-90
2022/03/27 08:42:16;;;;;;;;;;;;;;;10.31;84.31;101232.47;4900544;29;20051;-90
2022/03/27 08:44:42;;;;;;;26.92;18.15;;;;;;;10.39;84.92;101227.47;4897855;29;19990;-90
2022/03/27 08:47:34;;;;;;;30.42;20.67;;;;;;;10.40;84.30;101241.69;4899080;29;20446;-89
2022/03/27 08:50:00;;;;;;;28.90;19.30;;;;;;;10.49;84.41;101232.19;4896555;29;20184;-89
2022/03/27 08:52:48;;;;;;;27.60;18.90;;;;;;;10.54;84.30;101233.59;4901548;29;20039;-90
2022/03/27 08:55:43;;;;;;;35.92;21.75;;;;;;;10.52;84.28;101237.34;4932319;29;20149;-90
2022/03/27 08:58:10;;;;;;;34.10;22.08;;;;;;;10.54;84.25;101235.41;4912091;29;20519;-90
2022/03/27 09:00:36;;;;;;;32.85;20.88;;;;;;;10.52;84.39;101240.88;4901420;29;20400;-90
2022/03/27 09:03:02;;;;;;;32.58;21.92;;;;;;;10.54;84.49;101238.94;4902198;29;20122;-90
2022/03/27 09:05:28;;;;;;;29.80;19.95;;;;;;;10.62;84.62;101241.94;4903539;29;20032;-90
2022/03/27 09:07:55;;;;;;;31.10;20.67;;;;;;;10.64;84.45;101241.84;4903028;29;20023;-90
2022/03/27 09:10:22;;;;;;;34.60;24.60;;;;;;;10.71;84.51;101241.28;4901256;29;20087;-90
2022/03/27 09:12:47;;;;;;;27.75;20.42;;;;;;;10.72;84.42;101247.50;4899820;29;20086;-90
2022/03/27 09:15:13;;;;;;;31.05;21.30;;;;;;;10.74;84.37;101250.91;4914440;29;20038;-89
2022/03/27 09:18:14;;;;;;;30.00;20.50;;;;;;;10.81;84.55;101246.84;4913995;29;20035;-90
2022/03/27 09:20:47;;;;;;;27.63;19.88;;;;;;;10.83;84.18;101241.41;4823286;29;20241;-89
2022/03/27 09:23:21;;;;;;;30.80;21.17;;;;;;;10.81;84.11;101236.16;4900527;29;20484;-89
2022/03/27 09:25:49;;;;;;;31.25;21.05;;;;;;;10.85;84.35;101250.16;4913168;29;20032;-91
2022/03/27 09:28:41;;;;;;;29.00;19.98;;;;;;;10.87;83.79;101248.25;4913523;29;20075;-91
2022/03/27 09:31:17;;;;;;;28.83;20.48;;;;;;;10.83;84.09;101244.06;4891973;29;20043;-90
2022/03/27 09:33:54;;;;;;;29.10;19.92;;;;;;;10.70;84.73;101246.75;4935470;29;20031;-90
2022/03/27 09:36:47;;;;;;;30.23;20.48;;;;;;;10.72;84.83;101243.00;4899832;29;20082;-90
2022/03/27 09:39:16;;;;;;;30.40;20.40;;;;;;;10.86;84.67;101239.34;4901188;29;20579;-90
2022/03/27 09:41:51;;;;;;;29.48;20.73;;;;;;;10.95;84.30;101240.56;4895804;29;20035;-90
2022/03/27 09:44:19;;;;;;;31.85;21.02;;;;;;;10.92;84.00;101235.41;4918933;29;20083;-90
2022/03/27 09:47:01;;;;;;;32.85;21.35;;;;;;;10.96;84.11;101232.41;4893400;29;20048;-90
2022/03/27 09:49:34;;;;;;;29.27;19.75;;;;;;;11.04;84.22;101231.88;4908518;29;20042;-91
2022/03/27 09:52:05;;;;;;;31.83;20.85;;;;;;;10.97;84.66;101228.78;4904918;29;20442;-91
2022/03/27 09:54:57;;;;;;;32.50;21.50;;;;;;;10.96;85.00;101229.75;4890172;29;20377;-90
2022/03/27 09:57:28;;;;;;;33.05;22.83;;;;;;;10.97;84.85;101223.41;4905475;29;20027;-91
2022/03/27 09:59:57;;;;;;;35.03;22.38;;;;;;;10.92;85.06;101225.56;4904976;29;20508;-90
2022/03/27 10:02:26;;;;;;;41.35;24.80;;;;;;;10.92;85.29;101227.38;4907828;29;20032;-91
2022/03/27 10:05:06;;;;;;;37.78;24.20;;;;;;;10.93;85.68;101219.25;4891125;29;20035;-91
2022/03/27 10:07:48;;;;;;;37.92;24.08;;;;;;;10.96;85.20;101212.81;4891380;29;20504;-91
2022/03/27 10:10:16;;;;;;;37.67;23.83;;;;;;;11.07;85.57;101212.91;4888458;29;20079;-91
2022/03/27 10:12:43;;;;;;;40.22;26.05;;;;;;;11.17;85.31;101208.59;4898347;29;20035;-91
2022/03/27 10:15:14;;;;;;;38.30;24.83;;;;;;;11.18;85.29;101198.75;4885499;29;20055;-91
2022/03/27 10:17:43;;;;;;;38.13;25.20;;;;;;;11.22;84.92;101209.13;4887780;29;20035;-91
2022/03/27 10:20:13;;;;;;;37.38;24.23;;;;;;;11.28;84.67;101213.16;4885220;29;20035;-91
2022/03/27 10:22:49;;;;;;;38.92;24.52;;;;;;;11.36;84.46;101213.50;4887586;29;20031;-91
2022/03/27 10:25:16;;;;;;;40.55;25.08;;;;;;;11.34;84.42;101218.06;4884826;29;20971;-90
2022/03/27 10:27:49;;;;;;;42.30;25.88;;;;;;;11.28;84.46;101218.53;4901603;29;20516;-91
2022/03/27 10:30:16;;;;;;;38.53;24.73;;;;;;;11.32;84.68;101207.47;4901885;29;20098;-91
2022/03/27 10:32:43;;;;;;;42.97;26.38;;;;;;;11.37;84.59;101199.13;4902070;29;20104;-91
2022/03/27 10:35:29;;;;;;;36.50;23.85;;;;;;;11.48;84.44;101201.88;4887999;29;20071;-90
2022/03/27 10:38:24;;;;;;;39.65;25.35;;;;;;;11.55;83.75;101196.91;4914709;29;20074;-91
2022/03/27 10:41:13;;;;;;;38.17;25.70;;;;;;;11.58;83.85;101194.88;4894149;29;21217;-92
2022/03/27 10:43:44;;;;;;;38.67;25.25;;;;;;;11.57;84.15;101197.66;4911117;29;20043;-91
2022/03/27 10:46:21;;;;;;;41.55;26.67;;;;;;;11.48;84.44;101193.00;4913133;29;20036;-92
2022/03/27 10:48:48;;;;;;;40.38;26.38;;;;;;;11.52;84.27;101191.78;4885219;29;20043;-92
2022/03/27 10:51:26;;;;;;;41.10;26.20;;;;;;;11.49;84.36;101194.69;4889678;29;20024;-91
2022/03/27 10:54:08;;;;;;;41.97;27.42;;;;;;;11.50;84.44;101189.22;4895262;29;20039;-91
2022/03/27 10:56:36;;;;;;;40.13;26.38;;;;;;;11.53;84.20;101190.81;4896150;29;20036;-92
2022/03/27 10:59:09;;;;;;;43.40;27.63;;;;;;;11.58;84.33;101188.66;4880952;29;20027;-91
2022/03/27 11:01:45;;;;;;;43.05;27.73;;;;;;;11.58;84.60;101181.47;4881164;29;20034;-92
2022/03/27 11:04:12;;;;;;;42.67;25.60;;;;;;;11.61;84.54;101185.75;4895741;29;20036;-92
2022/03/27 11:06:43;;;;;;;44.15;27.95;;;;;;;11.64;84.18;101178.34;4880672;29;20040;-91
2022/03/27 11:09:30;;;;;;;45.28;28.88;;;;;;;11.61;84.28;101181.25;4879313;29;20035;-92
2022/03/27 11:11:57;;;;;;;41.60;28.75;;;;;;;11.67;84.55;101182.59;4879812;29;20060;-92
2022/03/27 11:14:48;;;;;;;42.97;27.98;;;;;;;11.65;84.09;101182.72;4883551;29;20092;-93
2022/03/27 11:17:30;;;;;;;42.72;28.77;;;;;;;11.58;84.27;101177.94;4899929;29;20051;-92
2022/03/27 11:19:55;;;;;;;40.90;28.08;;;;;;;11.58;84.35;101165.41;4880333;29;20451;-92